sensor_id;sensor_type;location;lat;lon;timestamp;temperature;humidity
17200;DHT22;8716;52.268;20.968;2024-02-21T00:00:38;5.90;99.90
17200;DHT22;8716;52.268;20.968;2024-02-21T00:03:07;5.90;99.90
17200;DHT22;8716;52.268;20.968;2024-02-21T00:05:35;5.90;99.90
17200;DHT22;8716;52.268;20.968;2024-02-21T00:08:04;5.90;99.90
17200;DHT22;8716;52.268;20.968;2024-02-21T00:10:33;5.90;99.90
17200;DHT22;8716;52.268;20.968;2024-02-21T00:13:03;5.90;99.90
17200;DHT22;8716;52.268;20.968;2024-02-21T00:15:32;5.90;99.90
17200;DHT22;8716;52.268;20.968;2024-02-21T00:18:00;5.90;99.90
17200;DHT22;8716;52.268;20.968;2024-02-21T00:20:29;5.90;99.90
17200;DHT22;8716;52.268;20.968;2024-02-21T00:22:57;5.90;99.90
17200;DHT22;8716;52.268;20.968;2024-02-21T00:25:26;5.90;99.90
17200;DHT22;8716;52.268;20.968;2024-02-21T00:27:54;5.90;99.90
17200;DHT22;8716;52.268;20.968;2024-02-21T00:30:24;6.00;99.90
17200;DHT22;8716;52.268;20.968;2024-02-21T00:32:52;6.00;99.90
17200;DHT22;8716;52.268;20.968;2024-02-21T00:35:20;5.90;99.90
17200;DHT22;8716;52.268;20.968;2024-02-21T00:37:48;5.90;99.90
17200;DHT22;8716;52.268;20.968;2024-02-21T00:40:17;5.90;99.90
17200;DHT22;8716;52.268;20.968;2024-02-21T00:42:47;5.90;99.90
17200;DHT22;8716;52.268;20.968;2024-02-21T00:45:15;5.90;99.90
17200;DHT22;8716;52.268;20.968;2024-02-21T00:47:45;6.00;99.90
17200;DHT22;8716;52.268;20.968;2024-02-21T00:50:14;6.00;99.90
17200;DHT22;8716;52.268;20.968;2024-02-21T00:52:42;6.00;99.90
17200;DHT22;8716;52.268;20.968;2024-02-21T00:55:11;6.00;99.90
17200;DHT22;8716;52.268;20.968;2024-02-21T00:57:39;6.10;99.90
17200;DHT22;8716;52.268;20.968;2024-02-21T01:00:08;6.10;99.90
17200;DHT22;8716;52.268;20.968;2024-02-21T01:02:37;6.10;99.90
17200;DHT22;8716;52.268;20.968;2024-02-21T01:05:07;6.10;99.90
17200;DHT22;8716;52.268;20.968;2024-02-21T01:07:35;6.10;99.90
17200;DHT22;8716;52.268;20.968;2024-02-21T01:10:04;6.10;99.90
17200;DHT22;8716;52.268;20.968;2024-02-21T01:12:33;6.10;99.90
17200;DHT22;8716;52.268;20.968;2024-02-21T01:15:01;6.10;99.90
17200;DHT22;8716;52.268;20.968;2024-02-21T01:17:29;6.10;99.90
17200;DHT22;8716;52.268;20.968;2024-02-21T01:19:57;6.10;99.90
17200;DHT22;8716;52.268;20.968;2024-02-21T01:22:26;6.10;99.90
17200;DHT22;8716;52.268;20.968;2024-02-21T01:24:55;6.10;99.90
17200;DHT22;8716;52.268;20.968;2024-02-21T01:27:24;6.10;99.90
17200;DHT22;8716;52.268;20.968;2024-02-21T01:29:52;6.10;99.90
17200;DHT22;8716;52.268;20.968;2024-02-21T01:32:25;6.20;99.90
17200;DHT22;8716;52.268;20.968;2024-02-21T01:34:53;6.20;99.90
17200;DHT22;8716;52.268;20.968;2024-02-21T01:37:21;6.20;99.90
17200;DHT22;8716;52.268;20.968;2024-02-21T01:39:51;6.20;99.90
17200;DHT22;8716;52.268;20.968;2024-02-21T01:42:20;6.20;99.90
17200;DHT22;8716;52.268;20.968;2024-02-21T01:44:48;6.20;99.90
17200;DHT22;8716;52.268;20.968;2024-02-21T01:47:16;6.30;99.90
17200;DHT22;8716;52.268;20.968;2024-02-21T01:49:47;6.30;99.90
17200;DHT22;8716;52.268;20.968;2024-02-21T01:52:16;6.30;99.90
17200;DHT22;8716;52.268;20.968;2024-02-21T01:54:46;6.40;99.90
17200;DHT22;8716;52.268;20.968;2024-02-21T01:57:16;6.40;99.90
17200;DHT22;8716;52.268;20.968;2024-02-21T01:59:45;6.40;99.90
17200;DHT22;8716;52.268;20.968;2024-02-21T02:02:13;6.40;99.90
17200;DHT22;8716;52.268;20.968;2024-02-21T02:04:42;6.40;99.90
17200;DHT22;8716;52.268;20.968;2024-02-21T02:07:12;6.40;99.90
17200;DHT22;8716;52.268;20.968;2024-02-21T02:09:40;6.30;99.90
17200;DHT22;8716;52.268;20.968;2024-02-21T02:12:08;6.40;99.90
17200;DHT22;8716;52.268;20.968;2024-02-21T02:14:38;6.30;99.90
17200;DHT22;8716;52.268;20.968;2024-02-21T02:17:06;6.30;99.90
17200;DHT22;8716;52.268;20.968;2024-02-21T02:19:38;6.30;99.90
17200;DHT22;8716;52.268;20.968;2024-02-21T02:22:14;6.30;99.90
17200;DHT22;8716;52.268;20.968;2024-02-21T02:24:48;6.30;99.90
17200;DHT22;8716;52.268;20.968;2024-02-21T02:27:16;6.30;99.90
17200;DHT22;8716;52.268;20.968;2024-02-21T02:29:45;6.30;99.90
17200;DHT22;8716;52.268;20.968;2024-02-21T02:32:13;6.30;99.90
17200;DHT22;8716;52.268;20.968;2024-02-21T02:34:42;6.30;99.90
17200;DHT22;8716;52.268;20.968;2024-02-21T02:37:10;6.30;99.90
17200;DHT22;8716;52.268;20.968;2024-02-21T02:39:38;6.40;99.90
17200;DHT22;8716;52.268;20.968;2024-02-21T02:42:10;6.40;99.90
17200;DHT22;8716;52.268;20.968;2024-02-21T02:44:38;6.40;99.90
17200;DHT22;8716;52.268;20.968;2024-02-21T02:47:08;6.40;99.90
17200;DHT22;8716;52.268;20.968;2024-02-21T02:49:36;6.40;99.90
17200;DHT22;8716;52.268;20.968;2024-02-21T02:52:05;6.40;99.90
17200;DHT22;8716;52.268;20.968;2024-02-21T02:54:33;6.30;99.90
17200;DHT22;8716;52.268;20.968;2024-02-21T02:57:01;6.40;99.90
17200;DHT22;8716;52.268;20.968;2024-02-21T02:59:32;6.40;99.90
17200;DHT22;8716;52.268;20.968;2024-02-21T03:02:00;6.40;99.90
17200;DHT22;8716;52.268;20.968;2024-02-21T03:04:29;6.40;99.90
17200;DHT22;8716;52.268;20.968;2024-02-21T03:06:57;6.40;99.90
17200;DHT22;8716;52.268;20.968;2024-02-21T03:09:26;6.40;99.90
17200;DHT22;8716;52.268;20.968;2024-02-21T03:11:55;6.40;99.90
17200;DHT22;8716;52.268;20.968;2024-02-21T03:14:29;6.40;99.90
17200;DHT22;8716;52.268;20.968;2024-02-21T03:16:59;6.40;99.90
17200;DHT22;8716;52.268;20.968;2024-02-21T03:19:28;6.40;99.90
17200;DHT22;8716;52.268;20.968;2024-02-21T03:21:56;6.40;99.90
17200;DHT22;8716;52.268;20.968;2024-02-21T03:24:24;6.40;99.90
17200;DHT22;8716;52.268;20.968;2024-02-21T03:26:52;6.40;99.90
17200;DHT22;8716;52.268;20.968;2024-02-21T03:29:22;6.40;99.90
17200;DHT22;8716;52.268;20.968;2024-02-21T03:31:50;6.40;99.90
17200;DHT22;8716;52.268;20.968;2024-02-21T03:34:20;6.40;99.90
17200;DHT22;8716;52.268;20.968;2024-02-21T03:36:48;6.30;99.90
17200;DHT22;8716;52.268;20.968;2024-02-21T03:39:17;6.30;99.90
17200;DHT22;8716;52.268;20.968;2024-02-21T03:41:45;6.20;99.90
17200;DHT22;8716;52.268;20.968;2024-02-21T03:44:13;6.20;99.90
17200;DHT22;8716;52.268;20.968;2024-02-21T03:46:42;6.20;99.90
17200;DHT22;8716;52.268;20.968;2024-02-21T03:49:10;6.20;99.90
17200;DHT22;8716;52.268;20.968;2024-02-21T03:51:40;6.20;99.90
17200;DHT22;8716;52.268;20.968;2024-02-21T03:54:08;6.20;99.90
17200;DHT22;8716;52.268;20.968;2024-02-21T03:56:37;6.20;99.90
17200;DHT22;8716;52.268;20.968;2024-02-21T03:59:07;6.20;99.90
17200;DHT22;8716;52.268;20.968;2024-02-21T04:01:35;6.20;99.90
17200;DHT22;8716;52.268;20.968;2024-02-21T04:04:04;6.20;99.90
17200;DHT22;8716;52.268;20.968;2024-02-21T04:06:32;6.30;99.90
17200;DHT22;8716;52.268;20.968;2024-02-21T04:09:02;6.20;99.90
17200;DHT22;8716;52.268;20.968;2024-02-21T04:11:31;6.30;99.90
17200;DHT22;8716;52.268;20.968;2024-02-21T04:13:59;6.30;99.90
17200;DHT22;8716;52.268;20.968;2024-02-21T04:16:28;6.40;99.90
17200;DHT22;8716;52.268;20.968;2024-02-21T04:18:56;6.30;99.90
17200;DHT22;8716;52.268;20.968;2024-02-21T04:21:25;6.30;99.90
17200;DHT22;8716;52.268;20.968;2024-02-21T04:23:53;6.30;99.90
17200;DHT22;8716;52.268;20.968;2024-02-21T04:26:23;6.30;99.90
17200;DHT22;8716;52.268;20.968;2024-02-21T04:28:51;6.40;99.90
17200;DHT22;8716;52.268;20.968;2024-02-21T04:31:19;6.40;99.90
17200;DHT22;8716;52.268;20.968;2024-02-21T04:33:47;6.40;99.90
17200;DHT22;8716;52.268;20.968;2024-02-21T04:36:16;6.40;99.90
17200;DHT22;8716;52.268;20.968;2024-02-21T04:38:45;6.40;99.90
17200;DHT22;8716;52.268;20.968;2024-02-21T04:41:13;6.40;99.90
17200;DHT22;8716;52.268;20.968;2024-02-21T04:43:43;6.50;99.90
17200;DHT22;8716;52.268;20.968;2024-02-21T04:46:11;6.50;99.90
17200;DHT22;8716;52.268;20.968;2024-02-21T04:48:39;6.50;99.90
17200;DHT22;8716;52.268;20.968;2024-02-21T04:51:08;6.50;99.90
17200;DHT22;8716;52.268;20.968;2024-02-21T04:53:36;6.50;99.90
17200;DHT22;8716;52.268;20.968;2024-02-21T04:56:05;6.50;99.90
17200;DHT22;8716;52.268;20.968;2024-02-21T04:58:38;6.50;99.90
17200;DHT22;8716;52.268;20.968;2024-02-21T05:01:08;6.50;99.90
17200;DHT22;8716;52.268;20.968;2024-02-21T05:03:38;6.50;99.90
17200;DHT22;8716;52.268;20.968;2024-02-21T05:06:07;6.50;99.90
17200;DHT22;8716;52.268;20.968;2024-02-21T05:08:35;6.50;99.90
17200;DHT22;8716;52.268;20.968;2024-02-21T05:11:04;6.50;99.90
17200;DHT22;8716;52.268;20.968;2024-02-21T05:13:32;6.50;99.90
17200;DHT22;8716;52.268;20.968;2024-02-21T05:16:00;6.60;99.90
17200;DHT22;8716;52.268;20.968;2024-02-21T05:18:31;6.60;99.90
17200;DHT22;8716;52.268;20.968;2024-02-21T05:20:59;6.60;99.90
17200;DHT22;8716;52.268;20.968;2024-02-21T05:23:27;6.60;99.90
17200;DHT22;8716;52.268;20.968;2024-02-21T05:25:55;6.60;99.90
17200;DHT22;8716;52.268;20.968;2024-02-21T05:28:24;6.60;99.90
17200;DHT22;8716;52.268;20.968;2024-02-21T05:30:52;6.60;99.90
17200;DHT22;8716;52.268;20.968;2024-02-21T05:33:20;6.60;99.90
17200;DHT22;8716;52.268;20.968;2024-02-21T05:35:50;6.70;99.90
17200;DHT22;8716;52.268;20.968;2024-02-21T05:38:19;6.60;99.90
17200;DHT22;8716;52.268;20.968;2024-02-21T05:40:47;6.70;99.90
17200;DHT22;8716;52.268;20.968;2024-02-21T05:43:15;6.70;99.90
17200;DHT22;8716;52.268;20.968;2024-02-21T05:45:43;6.70;99.90
17200;DHT22;8716;52.268;20.968;2024-02-21T05:48:12;6.70;99.90
17200;DHT22;8716;52.268;20.968;2024-02-21T05:50:40;6.70;99.90
17200;DHT22;8716;52.268;20.968;2024-02-21T05:53:10;6.70;99.90
17200;DHT22;8716;52.268;20.968;2024-02-21T05:55:39;6.70;99.90
17200;DHT22;8716;52.268;20.968;2024-02-21T05:58:07;6.80;99.90
17200;DHT22;8716;52.268;20.968;2024-02-21T06:00:37;6.80;99.90
17200;DHT22;8716;52.268;20.968;2024-02-21T06:03:05;6.80;99.90
17200;DHT22;8716;52.268;20.968;2024-02-21T06:05:37;6.80;99.90
17200;DHT22;8716;52.268;20.968;2024-02-21T06:08:06;6.80;99.90
17200;DHT22;8716;52.268;20.968;2024-02-21T06:10:36;6.80;99.90
17200;DHT22;8716;52.268;20.968;2024-02-21T06:13:07;6.90;99.90
17200;DHT22;8716;52.268;20.968;2024-02-21T06:15:36;7.00;99.90
17200;DHT22;8716;52.268;20.968;2024-02-21T06:18:04;7.00;99.90
17200;DHT22;8716;52.268;20.968;2024-02-21T06:20:33;7.00;99.90
17200;DHT22;8716;52.268;20.968;2024-02-21T06:23:03;7.00;99.90
17200;DHT22;8716;52.268;20.968;2024-02-21T06:25:31;7.10;99.90
17200;DHT22;8716;52.268;20.968;2024-02-21T06:28:01;7.10;99.90
17200;DHT22;8716;52.268;20.968;2024-02-21T06:30:29;7.10;99.90
17200;DHT22;8716;52.268;20.968;2024-02-21T06:33:01;7.20;99.90
17200;DHT22;8716;52.268;20.968;2024-02-21T06:35:33;7.30;99.90
17200;DHT22;8716;52.268;20.968;2024-02-21T06:38:01;7.40;99.90
17200;DHT22;8716;52.268;20.968;2024-02-21T06:40:30;7.40;99.90
17200;DHT22;8716;52.268;20.968;2024-02-21T06:43:06;7.40;99.90
17200;DHT22;8716;52.268;20.968;2024-02-21T06:45:35;7.40;99.90
17200;DHT22;8716;52.268;20.968;2024-02-21T06:48:03;7.50;99.90
17200;DHT22;8716;52.268;20.968;2024-02-21T06:50:32;7.50;99.90
17200;DHT22;8716;52.268;20.968;2024-02-21T06:53:01;7.50;99.90
17200;DHT22;8716;52.268;20.968;2024-02-21T06:55:32;7.50;99.90
17200;DHT22;8716;52.268;20.968;2024-02-21T06:58:00;7.40;99.90
17200;DHT22;8716;52.268;20.968;2024-02-21T07:00:30;7.40;99.90
17200;DHT22;8716;52.268;20.968;2024-02-21T07:02:59;7.40;99.90
17200;DHT22;8716;52.268;20.968;2024-02-21T07:05:27;7.50;99.90
17200;DHT22;8716;52.268;20.968;2024-02-21T07:07:56;7.50;99.90
17200;DHT22;8716;52.268;20.968;2024-02-21T07:10:24;7.50;99.90
17200;DHT22;8716;52.268;20.968;2024-02-21T07:12:52;7.50;99.90
17200;DHT22;8716;52.268;20.968;2024-02-21T07:15:21;7.50;99.90
17200;DHT22;8716;52.268;20.968;2024-02-21T07:17:50;7.50;99.90
17200;DHT22;8716;52.268;20.968;2024-02-21T07:20:19;7.50;99.90
17200;DHT22;8716;52.268;20.968;2024-02-21T07:22:47;7.50;99.90
17200;DHT22;8716;52.268;20.968;2024-02-21T07:25:15;7.60;99.90
17200;DHT22;8716;52.268;20.968;2024-02-21T07:27:44;7.60;99.90
17200;DHT22;8716;52.268;20.968;2024-02-21T07:30:13;7.60;99.90
17200;DHT22;8716;52.268;20.968;2024-02-21T07:32:43;7.60;99.90
17200;DHT22;8716;52.268;20.968;2024-02-21T07:35:13;7.60;99.90
17200;DHT22;8716;52.268;20.968;2024-02-21T07:37:42;7.70;99.90
17200;DHT22;8716;52.268;20.968;2024-02-21T07:40:13;7.70;99.90
17200;DHT22;8716;52.268;20.968;2024-02-21T07:42:41;7.80;99.90
17200;DHT22;8716;52.268;20.968;2024-02-21T07:45:12;7.90;99.90
17200;DHT22;8716;52.268;20.968;2024-02-21T07:47:41;7.80;99.90
17200;DHT22;8716;52.268;20.968;2024-02-21T07:50:09;7.80;99.90
17200;DHT22;8716;52.268;20.968;2024-02-21T07:52:39;7.90;99.90
17200;DHT22;8716;52.268;20.968;2024-02-21T07:55:08;8.00;99.90
17200;DHT22;8716;52.268;20.968;2024-02-21T07:57:37;8.00;99.90
17200;DHT22;8716;52.268;20.968;2024-02-21T08:00:06;8.10;99.90
17200;DHT22;8716;52.268;20.968;2024-02-21T08:02:39;8.30;99.90
17200;DHT22;8716;52.268;20.968;2024-02-21T08:05:09;8.40;99.90
17200;DHT22;8716;52.268;20.968;2024-02-21T08:07:41;8.50;99.90
17200;DHT22;8716;52.268;20.968;2024-02-21T08:10:09;8.60;99.90
17200;DHT22;8716;52.268;20.968;2024-02-21T08:12:38;8.70;99.90
17200;DHT22;8716;52.268;20.968;2024-02-21T08:15:07;8.80;99.90
17200;DHT22;8716;52.268;20.968;2024-02-21T08:17:39;9.00;99.90
17200;DHT22;8716;52.268;20.968;2024-02-21T08:20:09;9.10;99.90
17200;DHT22;8716;52.268;20.968;2024-02-21T08:22:38;9.10;99.90
17200;DHT22;8716;52.268;20.968;2024-02-21T08:25:08;9.20;99.90
17200;DHT22;8716;52.268;20.968;2024-02-21T08:27:37;9.30;99.90
17200;DHT22;8716;52.268;20.968;2024-02-21T08:30:06;9.30;99.90
17200;DHT22;8716;52.268;20.968;2024-02-21T08:32:35;9.40;99.90
17200;DHT22;8716;52.268;20.968;2024-02-21T08:35:04;9.40;99.90
17200;DHT22;8716;52.268;20.968;2024-02-21T08:37:33;9.40;99.90
17200;DHT22;8716;52.268;20.968;2024-02-21T08:40:01;9.40;99.90
17200;DHT22;8716;52.268;20.968;2024-02-21T08:42:39;9.30;99.90
17200;DHT22;8716;52.268;20.968;2024-02-21T08:45:08;9.30;99.90
17200;DHT22;8716;52.268;20.968;2024-02-21T08:47:39;9.20;99.90
17200;DHT22;8716;52.268;20.968;2024-02-21T08:50:08;9.30;99.90
17200;DHT22;8716;52.268;20.968;2024-02-21T08:52:53;9.20;99.90
17200;DHT22;8716;52.268;20.968;2024-02-21T08:55:21;9.30;99.90
17200;DHT22;8716;52.268;20.968;2024-02-21T08:57:52;9.40;99.90
17200;DHT22;8716;52.268;20.968;2024-02-21T09:00:21;9.50;99.90
17200;DHT22;8716;52.268;20.968;2024-02-21T09:02:54;9.60;99.90
17200;DHT22;8716;52.268;20.968;2024-02-21T09:05:23;9.60;99.90
17200;DHT22;8716;52.268;20.968;2024-02-21T09:07:53;9.60;99.90
17200;DHT22;8716;52.268;20.968;2024-02-21T09:10:21;9.60;99.90
17200;DHT22;8716;52.268;20.968;2024-02-21T09:12:51;9.60;99.90
17200;DHT22;8716;52.268;20.968;2024-02-21T09:15:19;9.70;99.90
17200;DHT22;8716;52.268;20.968;2024-02-21T09:17:48;9.60;99.90
17200;DHT22;8716;52.268;20.968;2024-02-21T09:20:16;9.60;99.90
17200;DHT22;8716;52.268;20.968;2024-02-21T09:22:45;9.60;99.90
17200;DHT22;8716;52.268;20.968;2024-02-21T09:25:13;9.60;99.90
17200;DHT22;8716;52.268;20.968;2024-02-21T09:27:44;9.60;99.90
17200;DHT22;8716;52.268;20.968;2024-02-21T09:30:14;9.60;99.90
17200;DHT22;8716;52.268;20.968;2024-02-21T09:32:42;9.60;99.90
17200;DHT22;8716;52.268;20.968;2024-02-21T09:35:11;9.50;99.90
17200;DHT22;8716;52.268;20.968;2024-02-21T09:37:40;9.50;99.90
17200;DHT22;8716;52.268;20.968;2024-02-21T09:40:11;9.40;99.90
17200;DHT22;8716;52.268;20.968;2024-02-21T09:42:44;9.40;99.90
17200;DHT22;8716;52.268;20.968;2024-02-21T09:45:20;9.50;99.90
17200;DHT22;8716;52.268;20.968;2024-02-21T09:48:00;9.50;99.90
17200;DHT22;8716;52.268;20.968;2024-02-21T09:50:30;9.50;99.90
17200;DHT22;8716;52.268;20.968;2024-02-21T09:53:00;9.60;99.90
17200;DHT22;8716;52.268;20.968;2024-02-21T09:55:31;9.60;99.90
17200;DHT22;8716;52.268;20.968;2024-02-21T09:58:02;9.60;99.90
17200;DHT22;8716;52.268;20.968;2024-02-21T10:00:33;9.70;99.90
17200;DHT22;8716;52.268;20.968;2024-02-21T10:03:01;9.70;99.90
17200;DHT22;8716;52.268;20.968;2024-02-21T10:05:32;9.80;99.90
17200;DHT22;8716;52.268;20.968;2024-02-21T10:08:01;9.80;99.90
17200;DHT22;8716;52.268;20.968;2024-02-21T10:10:29;9.90;99.90
17200;DHT22;8716;52.268;20.968;2024-02-21T10:12:58;9.90;99.90
17200;DHT22;8716;52.268;20.968;2024-02-21T10:15:26;9.90;99.90
17200;DHT22;8716;52.268;20.968;2024-02-21T10:18:00;9.90;99.90
17200;DHT22;8716;52.268;20.968;2024-02-21T10:20:30;10.00;99.90
17200;DHT22;8716;52.268;20.968;2024-02-21T10:23:03;10.00;99.90
17200;DHT22;8716;52.268;20.968;2024-02-21T10:25:35;10.00;99.90
17200;DHT22;8716;52.268;20.968;2024-02-21T10:28:05;10.00;99.90
17200;DHT22;8716;52.268;20.968;2024-02-21T10:30:33;10.00;99.90
17200;DHT22;8716;52.268;20.968;2024-02-21T10:33:05;10.00;99.90
17200;DHT22;8716;52.268;20.968;2024-02-21T10:35:34;10.10;99.90
17200;DHT22;8716;52.268;20.968;2024-02-21T10:38:03;10.10;99.90
17200;DHT22;8716;52.268;20.968;2024-02-21T10:40:31;10.20;99.90
17200;DHT22;8716;52.268;20.968;2024-02-21T10:43:01;10.20;99.90
17200;DHT22;8716;52.268;20.968;2024-02-21T10:45:32;10.20;99.90
17200;DHT22;8716;52.268;20.968;2024-02-21T10:48:08;10.30;99.90
17200;DHT22;8716;52.268;20.968;2024-02-21T10:50:52;10.30;99.90
17200;DHT22;8716;52.268;20.968;2024-02-21T10:53:29;10.20;99.90
17200;DHT22;8716;52.268;20.968;2024-02-21T10:56:10;10.20;99.90
17200;DHT22;8716;52.268;20.968;2024-02-21T10:58:41;10.30;99.90
17200;DHT22;8716;52.268;20.968;2024-02-21T11:01:12;10.20;99.90
17200;DHT22;8716;52.268;20.968;2024-02-21T11:03:45;10.20;99.90
17200;DHT22;8716;52.268;20.968;2024-02-21T11:06:15;10.20;99.90
17200;DHT22;8716;52.268;20.968;2024-02-21T11:08:44;10.20;99.90
17200;DHT22;8716;52.268;20.968;2024-02-21T11:11:13;10.20;99.90
17200;DHT22;8716;52.268;20.968;2024-02-21T11:14:05;10.20;99.90
17200;DHT22;8716;52.268;20.968;2024-02-21T11:16:38;10.20;99.90
17200;DHT22;8716;52.268;20.968;2024-02-21T11:19:10;10.30;99.90
17200;DHT22;8716;52.268;20.968;2024-02-21T11:21:39;10.30;99.90
17200;DHT22;8716;52.268;20.968;2024-02-21T11:24:08;10.20;99.90
17200;DHT22;8716;52.268;20.968;2024-02-21T11:26:37;10.20;99.90
17200;DHT22;8716;52.268;20.968;2024-02-21T11:29:06;10.10;99.90
17200;DHT22;8716;52.268;20.968;2024-02-21T11:31:39;10.20;99.90
17200;DHT22;8716;52.268;20.968;2024-02-21T11:34:11;10.10;99.90
17200;DHT22;8716;52.268;20.968;2024-02-21T11:36:49;10.10;99.90
17200;DHT22;8716;52.268;20.968;2024-02-21T11:39:19;10.10;99.90
17200;DHT22;8716;52.268;20.968;2024-02-21T11:42:02;10.00;99.90
17200;DHT22;8716;52.268;20.968;2024-02-21T11:44:30;10.00;99.90
17200;DHT22;8716;52.268;20.968;2024-02-21T11:46:59;9.90;99.90
17200;DHT22;8716;52.268;20.968;2024-02-21T11:49:29;9.90;99.90
17200;DHT22;8716;52.268;20.968;2024-02-21T11:51:58;10.00;99.90
17200;DHT22;8716;52.268;20.968;2024-02-21T11:54:28;9.90;99.90
17200;DHT22;8716;52.268;20.968;2024-02-21T11:56:56;9.90;99.90
17200;DHT22;8716;52.268;20.968;2024-02-21T11:59:24;9.80;99.90
17200;DHT22;8716;52.268;20.968;2024-02-21T12:01:53;9.80;99.90
17200;DHT22;8716;52.268;20.968;2024-02-21T12:04:21;9.80;99.90
17200;DHT22;8716;52.268;20.968;2024-02-21T12:06:52;9.80;99.90
17200;DHT22;8716;52.268;20.968;2024-02-21T12:09:22;9.70;99.90
17200;DHT22;8716;52.268;20.968;2024-02-21T12:11:57;9.70;99.90
17200;DHT22;8716;52.268;20.968;2024-02-21T12:14:29;9.70;99.90
17200;DHT22;8716;52.268;20.968;2024-02-21T12:16:58;9.60;99.90
17200;DHT22;8716;52.268;20.968;2024-02-21T12:19:29;9.60;99.90
17200;DHT22;8716;52.268;20.968;2024-02-21T12:22:00;9.60;99.90
17200;DHT22;8716;52.268;20.968;2024-02-21T12:24:33;9.60;99.90
17200;DHT22;8716;52.268;20.968;2024-02-21T12:27:03;9.60;99.90
17200;DHT22;8716;52.268;20.968;2024-02-21T12:29:32;9.60;99.90
17200;DHT22;8716;52.268;20.968;2024-02-21T12:32:00;9.50;99.90
17200;DHT22;8716;52.268;20.968;2024-02-21T12:34:31;9.60;99.90
17200;DHT22;8716;52.268;20.968;2024-02-21T12:37:21;9.50;99.90
17200;DHT22;8716;52.268;20.968;2024-02-21T12:39:50;9.50;99.90
17200;DHT22;8716;52.268;20.968;2024-02-21T12:42:18;9.40;99.90
17200;DHT22;8716;52.268;20.968;2024-02-21T12:44:47;9.50;99.90
17200;DHT22;8716;52.268;20.968;2024-02-21T12:47:15;9.50;99.90
17200;DHT22;8716;52.268;20.968;2024-02-21T12:49:45;9.40;99.90
17200;DHT22;8716;52.268;20.968;2024-02-21T12:52:14;9.40;99.90
17200;DHT22;8716;52.268;20.968;2024-02-21T12:54:44;9.40;99.90
17200;DHT22;8716;52.268;20.968;2024-02-21T12:57:13;9.40;99.90
17200;DHT22;8716;52.268;20.968;2024-02-21T12:59:41;9.40;99.90
17200;DHT22;8716;52.268;20.968;2024-02-21T13:02:10;9.30;99.90
17200;DHT22;8716;52.268;20.968;2024-02-21T13:04:38;9.30;99.90
17200;DHT22;8716;52.268;20.968;2024-02-21T13:07:08;9.30;99.90
17200;DHT22;8716;52.268;20.968;2024-02-21T13:09:39;9.30;99.90
17200;DHT22;8716;52.268;20.968;2024-02-21T13:12:09;9.30;99.90
17200;DHT22;8716;52.268;20.968;2024-02-21T13:14:37;9.20;99.90
17200;DHT22;8716;52.268;20.968;2024-02-21T13:17:06;9.20;99.90
17200;DHT22;8716;52.268;20.968;2024-02-21T13:19:35;9.20;99.90
17200;DHT22;8716;52.268;20.968;2024-02-21T13:22:03;9.20;99.90
17200;DHT22;8716;52.268;20.968;2024-02-21T13:24:32;9.20;99.90
17200;DHT22;8716;52.268;20.968;2024-02-21T13:27:00;9.20;99.90
17200;DHT22;8716;52.268;20.968;2024-02-21T13:29:32;9.20;99.90
17200;DHT22;8716;52.268;20.968;2024-02-21T13:32:02;9.20;99.90
17200;DHT22;8716;52.268;20.968;2024-02-21T13:34:33;9.20;99.90
17200;DHT22;8716;52.268;20.968;2024-02-21T13:37:03;9.20;99.90
17200;DHT22;8716;52.268;20.968;2024-02-21T13:39:34;9.20;99.90
17200;DHT22;8716;52.268;20.968;2024-02-21T13:42:07;9.20;99.90
17200;DHT22;8716;52.268;20.968;2024-02-21T13:44:39;9.20;99.90
17200;DHT22;8716;52.268;20.968;2024-02-21T13:47:09;9.20;99.90
17200;DHT22;8716;52.268;20.968;2024-02-21T13:49:38;9.10;99.90
17200;DHT22;8716;52.268;20.968;2024-02-21T13:52:06;9.20;99.90
17200;DHT22;8716;52.268;20.968;2024-02-21T13:54:36;9.20;99.90
17200;DHT22;8716;52.268;20.968;2024-02-21T13:57:04;9.20;99.90
17200;DHT22;8716;52.268;20.968;2024-02-21T13:59:32;9.20;99.90
17200;DHT22;8716;52.268;20.968;2024-02-21T14:02:02;9.20;99.90
17200;DHT22;8716;52.268;20.968;2024-02-21T14:04:30;9.10;99.90
17200;DHT22;8716;52.268;20.968;2024-02-21T14:06:59;9.20;99.90
17200;DHT22;8716;52.268;20.968;2024-02-21T14:09:27;9.20;99.90
17200;DHT22;8716;52.268;20.968;2024-02-21T14:11:56;9.20;99.90
17200;DHT22;8716;52.268;20.968;2024-02-21T14:14:24;9.10;99.90
17200;DHT22;8716;52.268;20.968;2024-02-21T14:16:53;9.20;99.90
17200;DHT22;8716;52.268;20.968;2024-02-21T14:19:25;9.10;99.90
17200;DHT22;8716;52.268;20.968;2024-02-21T14:21:53;9.10;99.90
17200;DHT22;8716;52.268;20.968;2024-02-21T14:24:21;9.10;99.90
17200;DHT22;8716;52.268;20.968;2024-02-21T14:26:50;9.10;99.90
17200;DHT22;8716;52.268;20.968;2024-02-21T14:29:18;9.10;99.90
17200;DHT22;8716;52.268;20.968;2024-02-21T14:31:47;9.10;99.90
17200;DHT22;8716;52.268;20.968;2024-02-21T14:34:17;9.10;99.90
17200;DHT22;8716;52.268;20.968;2024-02-21T14:36:47;9.10;99.90
17200;DHT22;8716;52.268;20.968;2024-02-21T14:39:16;9.10;99.90
17200;DHT22;8716;52.268;20.968;2024-02-21T14:41:44;9.00;99.90
17200;DHT22;8716;52.268;20.968;2024-02-21T14:44:12;9.00;99.90
17200;DHT22;8716;52.268;20.968;2024-02-21T14:46:41;9.00;99.90
17200;DHT22;8716;52.268;20.968;2024-02-21T14:49:10;8.90;99.90
17200;DHT22;8716;52.268;20.968;2024-02-21T14:51:39;8.90;99.90
17200;DHT22;8716;52.268;20.968;2024-02-21T14:54:08;8.90;99.90
17200;DHT22;8716;52.268;20.968;2024-02-21T14:56:37;8.90;99.90
17200;DHT22;8716;52.268;20.968;2024-02-21T14:59:07;8.80;99.90
17200;DHT22;8716;52.268;20.968;2024-02-21T15:01:47;8.80;99.90
17200;DHT22;8716;52.268;20.968;2024-02-21T15:04:15;8.90;99.90
17200;DHT22;8716;52.268;20.968;2024-02-21T15:06:44;8.90;99.90
17200;DHT22;8716;52.268;20.968;2024-02-21T15:09:14;8.90;99.90
17200;DHT22;8716;52.268;20.968;2024-02-21T15:11:42;8.90;99.90
17200;DHT22;8716;52.268;20.968;2024-02-21T15:14:11;8.90;99.90
17200;DHT22;8716;52.268;20.968;2024-02-21T15:16:39;8.90;99.90
17200;DHT22;8716;52.268;20.968;2024-02-21T15:19:08;8.90;99.90
17200;DHT22;8716;52.268;20.968;2024-02-21T15:21:36;8.90;99.90
17200;DHT22;8716;52.268;20.968;2024-02-21T15:24:04;8.90;99.90
17200;DHT22;8716;52.268;20.968;2024-02-21T15:26:34;8.80;99.90
17200;DHT22;8716;52.268;20.968;2024-02-21T15:29:02;8.80;99.90
17200;DHT22;8716;52.268;20.968;2024-02-21T15:31:32;8.80;99.90
17200;DHT22;8716;52.268;20.968;2024-02-21T15:34:00;8.80;99.90
17200;DHT22;8716;52.268;20.968;2024-02-21T15:36:29;8.80;99.90
17200;DHT22;8716;52.268;20.968;2024-02-21T15:38:57;8.80;99.90
17200;DHT22;8716;52.268;20.968;2024-02-21T15:41:26;8.80;99.90
17200;DHT22;8716;52.268;20.968;2024-02-21T15:43:56;8.80;99.90
17200;DHT22;8716;52.268;20.968;2024-02-21T15:46:26;8.70;99.90
17200;DHT22;8716;52.268;20.968;2024-02-21T15:48:54;8.80;99.90
17200;DHT22;8716;52.268;20.968;2024-02-21T15:51:23;8.70;99.90
17200;DHT22;8716;52.268;20.968;2024-02-21T15:53:51;8.70;99.90
17200;DHT22;8716;52.268;20.968;2024-02-21T15:56:19;8.80;99.90
17200;DHT22;8716;52.268;20.968;2024-02-21T15:58:48;8.70;99.90